Terminal Aerodrome Forecast
Issued by NWS Twin Cities, MN

Home | Current Version | Previous Version | Text Only | Print | Product List | Glossary On
Versions: 1 2 3 4 5 6 7 8 9 10 11 12 13 14 15 16 17 18 19 20
765
FTUS43 KMPX 221122
TAFEAU
TAF
KEAU 221122Z 2212/2312 05003KT P6SM BKN120
     FM221700 09006KT P6SM OVC090
     FM222200 10007KT P6SM VCSH OVC040
     FM230000 10008KT 4SM -SN BR OVC030
     FM230200 11008KT 1SM -SN BR OVC008
     FM230800 13005KT 3SM -SN BR OVC008
     FM231100 17005KT 6SM -SHSN OVC010=

USA.gov is the U.S. government's official web portal to all federal, state and local government web resources and services.